Terminal Aerodrome Forecast
Issued by NWS

Home | Current Version | Previous Version | Text Only | Print | Product List | Glossary On
Versions: 1 2 3 4 5 6 7 8 9 10 11 12 13 14 15 16 17 18 19 20 21 22 23 24 25 26 27 28 29 30 31 32 33 34 35 36 37 38 39 40
000
FTUS43 KGRB 200531
TAFATW
TAF
KATW 200531Z 2006/2106 12005KT P6SM SKC WS005/13025KT
      TEMPO 2010/2014 5SM BR SCT012
     FM201400 14009KT P6SM SCT120 BKN250
     FM201600 15012G20KT P6SM BKN070 PROB30 2023/2102 5SM -TSRA
      OVC030CB=

USA.gov is the U.S. government's official web portal to all federal, state and local government web resources and services.